^^
Your Local Weather - Clay, NY Station Historical Data
Daily Summary for October 25, 2017 Units:  English    Metric   Both
« Previous Day
Next Day »
Daily Weekly Monthly Yearly Custom
  High: Low: Average:
Temperature: 59.6 °F 41.5 °F 52 °F
Dew Point: 50.2 °F 38.0 °F 40.9 °F
Humidity: 90% 48% 67%
Wind Speed: 4.0mph 0.0mph 1.1mph
Wind Gust: 11.0mph - -
Wind- - WSW
Pressure: 29.77 in 29.65 in -
Precipitation: 0.00 in    
Historical Graphs
 
 
Tabular Data for October 25, 2017
Time Temperature Dew Point Pressure Wind Wind Speed Wind Gust Humidity Rainfall Rate (Hourly) solar
00:02 56.2 °F 48.4 °F 29.67 in Calm     75% 0.00 in 0 W/m2
00:08 55.9 °F 49.8 °F 29.67 in Calm     80% 0.00 in 0 W/m2
00:14 55.3 °F 50.2 °F 29.67 in Calm     83% 0.00 in 0 W/m2
00:20 54.7 °F 50.0 °F 29.67 in Calm     84% 0.00 in 0 W/m2
00:26 54.1 °F 49.1 °F 29.67 in Calm     83% 0.00 in 0 W/m2
00:32 53.9 °F 49.2 °F 29.67 in Calm     84% 0.00 in 0 W/m2
00:38 53.9 °F 49.2 °F 29.67 in Calm   1.0 mph 84% 0.00 in 0 W/m2
00:44 53.9 °F 49.2 °F 29.67 in SSW 1.0 mph 3.0 mph 84% 0.00 in 0 W/m2
00:50 54.1 °F 49.4 °F 29.68 in SSW 2.0 mph 2.0 mph 84% 0.00 in 0 W/m2
00:56 54.2 °F 49.5 °F 29.68 in SSW 2.0 mph 2.0 mph 84% 0.00 in 0 W/m2
01:02 54.3 °F 49.2 °F 29.68 in SSW 2.0 mph 2.0 mph 83% 0.00 in 0 W/m2
01:08 54.4 °F 49.0 °F 29.68 in SSW 1.0 mph 2.0 mph 82% 0.00 in 0 W/m2
01:14 54.4 °F 49.0 °F 29.68 in SSW 1.0 mph 2.0 mph 82% 0.00 in 0 W/m2
01:20 54.4 °F 49.0 °F 29.68 in Calm     82% 0.00 in 0 W/m2
01:26 54.5 °F 48.8 °F 29.68 in SSW 1.0 mph 1.0 mph 81% 0.00 in 0 W/m2
01:32 54.3 °F 48.6 °F 29.68 in SSW 1.0 mph 1.0 mph 81% 0.00 in 0 W/m2
01:38 54.4 °F 48.4 °F 29.68 in SSW 1.0 mph 1.0 mph 80% 0.00 in 0 W/m2
01:44 54.6 °F 48.2 °F 29.68 in SSW 1.0 mph 2.0 mph 79% 0.00 in 0 W/m2
01:50 54.6 °F 48.6 °F 29.68 in Calm     80% 0.00 in 0 W/m2
01:56 54.4 °F 48.7 °F 29.68 in Calm     81% 0.00 in 0 W/m2
02:02 54.4 °F 48.0 °F 29.68 in Calm     79% 0.00 in 0 W/m2
02:08 54.8 °F 47.0 °F 29.68 in SW 1.0 mph 5.0 mph 75% 0.00 in 0 W/m2
02:14 55.3 °F 47.2 °F 29.68 in WSW 2.0 mph 2.0 mph 74% 0.00 in 0 W/m2
02:20 55.5 °F 47.0 °F 29.68 in SW 2.0 mph 2.0 mph 73% 0.00 in 0 W/m2
02:26 55.4 °F 46.9 °F 29.69 in SW 2.0 mph 2.0 mph 73% 0.00 in 0 W/m2
02:32 55.2 °F 46.3 °F 29.69 in SW 1.0 mph 3.0 mph 72% 0.00 in 0 W/m2
02:38 55.2 °F 46.0 °F 29.69 in SW 1.0 mph 3.0 mph 71% 0.00 in 0 W/m2
02:44 55.2 °F 44.8 °F 29.68 in SW 1.0 mph 3.0 mph 68% 0.00 in 0 W/m2
02:50 55.2 °F 44.8 °F 29.69 in SW 1.0 mph 3.0 mph 68% 0.00 in 0 W/m2
02:56 55.2 °F 44.4 °F 29.68 in SW 1.0 mph 6.0 mph 67% 0.00 in 0 W/m2
03:02 55.1 °F 43.9 °F 29.69 in SW 1.0 mph 1.0 mph 66% 0.00 in 0 W/m2
03:08 55.0 °F 43.8 °F 29.69 in SW 1.0 mph 1.0 mph 66% 0.00 in 0 W/m2
03:14 55.0 °F 43.4 °F 29.69 in SW 1.0 mph 1.0 mph 65% 0.00 in 0 W/m2
03:20 55.0 °F 43.0 °F 29.69 in SW 2.0 mph 2.0 mph 64% 0.00 in 0 W/m2
03:26 54.8 °F 42.0 °F 29.69 in SSW 2.0 mph 3.0 mph 62% 0.00 in 0 W/m2
03:32 54.7 °F 41.9 °F 29.70 in SSW 2.0 mph 2.0 mph 62% 0.00 in 0 W/m2
03:38 54.5 °F 41.7 °F 29.70 in WSW 1.0 mph 3.0 mph 62% 0.00 in 0 W/m2
03:44 54.4 °F 41.2 °F 29.70 in West 2.0 mph 4.0 mph 61% 0.00 in 0 W/m2
03:50 54.4 °F 40.8 °F 29.70 in WSW 2.0 mph 3.0 mph 60% 0.00 in 0 W/m2
03:56 54.2 °F 41.0 °F 29.70 in SW 2.0 mph 5.0 mph 61% 0.00 in 0 W/m2
04:02 53.8 °F 40.7 °F 29.70 in SW 1.0 mph 2.0 mph 61% 0.00 in 0 W/m2
04:08 53.5 °F 40.8 °F 29.70 in SW 1.0 mph 2.0 mph 62% 0.00 in 0 W/m2
04:14 53.3 °F 40.6 °F 29.70 in WSW 1.0 mph 6.0 mph 62% 0.00 in 0 W/m2
04:20 53.4 °F 40.3 °F 29.70 in SW 2.0 mph 3.0 mph 61% 0.00 in 0 W/m2
04:26 53.3 °F 39.8 °F 29.70 in WSW 2.0 mph 5.0 mph 60% 0.00 in 0 W/m2
04:32 53.1 °F 39.6 °F 29.70 in WNW 2.0 mph 2.0 mph 60% 0.00 in 0 W/m2
04:38 53.0 °F 39.5 °F 29.70 in WSW 2.0 mph 2.0 mph 60% 0.00 in 0 W/m2
04:40 53.0 °F 39.9 °F 29.70 in WSW 2.0 mph 2.0 mph 61% 0.00 in 0 W/m2
04:46 52.8 °F 40.1 °F 29.70 in WSW 1.0 mph 4.0 mph 62% 0.00 in 0 W/m2
04:52 52.6 °F 39.9 °F 29.70 in WSW 1.0 mph 3.0 mph 62% 0.00 in 0 W/m2
04:58 52.5 °F 39.4 °F 29.70 in WSW 1.0 mph 3.0 mph 61% 0.00 in 0 W/m2
05:04 52.5 °F 39.4 °F 29.69 in WSW 1.0 mph 2.0 mph 61% 0.00 in 0 W/m2
05:10 52.5 °F 39.4 °F 29.69 in WSW 1.0 mph 1.0 mph 61% 0.00 in 0 W/m2
05:16 52.4 °F 39.8 °F 29.69 in SSW 1.0 mph 6.0 mph 62% 0.00 in 0 W/m2
05:22 52.4 °F 39.3 °F 29.69 in SW 2.0 mph 4.0 mph 61% 0.00 in 0 W/m2
05:28 52.3 °F 39.2 °F 29.69 in SW 2.0 mph 4.0 mph 61% 0.00 in 0 W/m2
05:34 52.3 °F 38.8 °F 29.69 in SW 2.0 mph 2.0 mph 60% 0.00 in 0 W/m2
05:40 52.3 °F 38.8 °F 29.69 in SW 2.0 mph 2.0 mph 60% 0.00 in 0 W/m2
05:46 52.2 °F 38.7 °F 29.68 in SW 2.0 mph 3.0 mph 60% 0.00 in 0 W/m2
05:52 52.0 °F 39.0 °F 29.69 in WSW 2.0 mph 2.0 mph 61% 0.00 in 0 W/m2
05:58 51.7 °F 39.1 °F 29.69 in WSW 1.0 mph 2.0 mph 62% 0.00 in 0 W/m2
06:04 51.6 °F 39.0 °F 29.69 in WSW 1.0 mph 1.0 mph 62% 0.00 in 0 W/m2
06:10 51.6 °F 39.4 °F 29.69 in WSW 1.0 mph 1.0 mph 63% 0.00 in 0 W/m2
06:16 51.6 °F 39.4 °F 29.69 in WSW 1.0 mph 1.0 mph 63% 0.00 in 0 W/m2
06:22 51.6 °F 39.4 °F 29.69 in WSW 1.0 mph 1.0 mph 63% 0.00 in 0 W/m2
06:28 51.6 °F 39.4 °F 29.69 in WSW 1.0 mph 2.0 mph 63% 0.00 in 0 W/m2
06:34 51.6 °F 39.4 °F 29.68 in WSW 1.0 mph 2.0 mph 63% 0.00 in 0 W/m2
06:40 51.6 °F 39.4 °F 29.69 in WSW 2.0 mph 2.0 mph 63% 0.00 in 0 W/m2
06:46 51.5 °F 39.3 °F 29.69 in SW 1.0 mph 2.0 mph 63% 0.00 in 0 W/m2
06:52 51.4 °F 39.6 °F 29.69 in SW 2.0 mph 2.0 mph 64% 0.00 in 0 W/m2
06:58 51.3 °F 39.5 °F 29.69 in South 3.0 mph 4.0 mph 64% 0.00 in 0 W/m2
07:04 51.2 °F 39.4 °F 29.69 in South 2.0 mph 4.0 mph 64% 0.00 in 0 W/m2
07:10 51.2 °F 39.4 °F 29.69 in South 2.0 mph 3.0 mph 64% 0.00 in 0 W/m2
07:16 51.2 °F 39.0 °F 29.69 in South 2.0 mph 5.0 mph 63% 0.00 in 0 W/m2
07:22 51.4 °F 38.4 °F 29.69 in SW 4.0 mph 6.0 mph 61% 0.00 in 0 W/m2
07:28 51.4 °F 38.8 °F 29.68 in South 3.0 mph 6.0 mph 62% 0.00 in 0 W/m2
07:34 51.3 °F 39.1 °F 29.68 in SSW 2.0 mph 5.0 mph 63% 0.00 in 0 W/m2
07:40 51.3 °F 39.1 °F 29.67 in SSW 1.0 mph 2.0 mph 63% 0.00 in 0 W/m2
07:46 51.0 °F 39.2 °F 29.68 in SSW 1.0 mph 2.0 mph 64% 0.00 in 5 W/m2
07:52 50.9 °F 39.1 °F 29.68 in SSW 1.0 mph 1.0 mph 64% 0.00 in 5 W/m2
07:58 50.8 °F 39.1 °F 29.67 in SSW 1.0 mph 3.0 mph 64% 0.00 in 7 W/m2
08:04 50.7 °F 39.7 °F 29.68 in SSE 2.0 mph 4.0 mph 66% 0.00 in 16 W/m2
08:10 50.4 °F 39.9 °F 29.68 in SSE 2.0 mph 2.0 mph 67% 0.00 in 16 W/m2
08:16 50.1 °F 39.9 °F 29.69 in South 2.0 mph 3.0 mph 68% 0.00 in 16 W/m2
08:22 50.0 °F 40.2 °F 29.69 in SSE 2.0 mph 3.0 mph 69% 0.00 in 26 W/m2
08:28 50.0 °F 40.6 °F 29.69 in SSE 2.0 mph 3.0 mph 70% 0.00 in 39 W/m2
08:34 50.2 °F 40.4 °F 29.69 in South 2.0 mph 4.0 mph 69% 0.00 in 125 W/m2
08:40 50.4 °F 40.6 °F 29.69 in South 2.0 mph 3.0 mph 69% 0.00 in 53 W/m2
08:46 50.3 °F 40.5 °F 29.69 in South 2.0 mph 4.0 mph 69% 0.00 in 49 W/m2
08:52 50.3 °F 40.5 °F 29.69 in South 2.0 mph 3.0 mph 69% 0.00 in 74 W/m2
08:58 50.4 °F 40.6 °F 29.69 in SSE 2.0 mph 3.0 mph 69% 0.00 in 49 W/m2
09:04 50.2 °F 40.8 °F 29.69 in SSE 1.0 mph 2.0 mph 70% 0.00 in 47 W/m2
09:10 50.1 °F 40.7 °F 29.69 in Calm   1.0 mph 70% 0.00 in 35 W/m2
09:16 49.8 °F 40.4 °F 29.69 in Calm   1.0 mph 70% 0.00 in 51 W/m2
09:22 49.8 °F 40.4 °F 29.69 in South 2.0 mph 5.0 mph 70% 0.00 in 58 W/m2
09:28 50.0 °F 40.2 °F 29.69 in South 2.0 mph 5.0 mph 69% 0.00 in 74 W/m2
09:34 50.4 °F 40.2 °F 29.70 in Calm   2.0 mph 68% 0.00 in 353 W/m2
09:40 52.8 °F 41.7 °F 29.70 in Calm     66% 0.00 in 425 W/m2
09:46 53.4 °F 41.5 °F 29.70 in SSW 1.0 mph 2.0 mph 64% 0.00 in 471 W/m2
09:52 53.7 °F 41.0 °F 29.70 in SW 1.0 mph 3.0 mph 62% 0.00 in 480 W/m2
09:58 54.4 °F 40.8 °F 29.70 in WSW 2.0 mph 4.0 mph 60% 0.00 in 504 W/m2
10:04 55.1 °F 41.5 °F 29.70 in SW 2.0 mph 5.0 mph 60% 0.00 in 519 W/m2
10:10 54.6 °F 40.1 °F 29.70 in SW 1.0 mph 1.0 mph 58% 0.00 in 134 W/m2
10:16 53.6 °F 40.0 °F 29.70 in WSW 1.0 mph 4.0 mph 60% 0.00 in 178 W/m2
10:22 53.5 °F 39.9 °F 29.70 in WSW 3.0 mph 3.0 mph 60% 0.00 in 561 W/m2
10:28 55.1 °F 41.0 °F 29.69 in West 2.0 mph 11.0 mph 59% 0.00 in 582 W/m2
10:34 53.9 °F 38.6 °F 29.70 in SW 4.0 mph 7.0 mph 56% 0.00 in 148 W/m2
10:40 53.2 °F 40.1 °F 29.70 in WSW 4.0 mph 4.0 mph 61% 0.00 in 522 W/m2
10:46 53.9 °F 40.3 °F 29.69 in SW 3.0 mph 4.0 mph 60% 0.00 in 499 W/m2
10:52 54.4 °F 39.0 °F 29.69 in West 3.0 mph 3.0 mph 56% 0.00 in 515 W/m2
10:58 54.4 °F 39.0 °F 29.69 in SSW 3.0 mph 6.0 mph 56% 0.00 in 492 W/m2
11:04 54.4 °F 39.0 °F 29.69 in SE 4.0 mph 6.0 mph 56% 0.00 in 524 W/m2
11:10 54.7 °F 39.3 °F 29.69 in WSW 4.0 mph 4.0 mph 56% 0.00 in 526 W/m2
11:16 54.9 °F 38.6 °F 29.69 in SSW 4.0 mph 5.0 mph 54% 0.00 in 533 W/m2
11:22 55.5 °F 39.6 °F 29.69 in South 4.0 mph 4.0 mph 55% 0.00 in 543 W/m2
11:28 55.2 °F 40.2 °F 29.69 in SW 3.0 mph 8.0 mph 57% 0.00 in 564 W/m2
11:34 55.8 °F 40.3 °F 29.69 in WSW 3.0 mph 5.0 mph 56% 0.00 in 568 W/m2
11:40 55.4 °F 38.5 °F 29.69 in WSW 3.0 mph 3.0 mph 53% 0.00 in 580 W/m2
11:46 54.9 °F 39.0 °F 29.69 in WSW 2.0 mph 3.0 mph 55% 0.00 in 315 W/m2
11:52 55.5 °F 39.6 °F 29.68 in SW 1.0 mph 3.0 mph 55% 0.00 in 299 W/m2
11:58 54.7 °F 39.3 °F 29.68 in SSW 2.0 mph 3.0 mph 56% 0.00 in 274 W/m2
12:04 56.0 °F 41.0 °F 29.68 in SW 3.0 mph 3.0 mph 57% 0.00 in 633 W/m2
12:10 56.8 °F 39.8 °F 29.68 in WSW 3.0 mph 3.0 mph 53% 0.00 in 596 W/m2
12:16 56.6 °F 39.7 °F 29.67 in SW 3.0 mph 4.0 mph 53% 0.00 in 596 W/m2
12:22 56.4 °F 38.0 °F 29.67 in SW 3.0 mph 7.0 mph 50% 0.00 in 638 W/m2
12:28 56.1 °F 38.2 °F 29.67 in WSW 3.0 mph 7.0 mph 51% 0.00 in 160 W/m2
12:34 56.8 °F 42.6 °F 29.67 in WSW 3.0 mph 3.0 mph 59% 0.00 in 661 W/m2
12:40 57.6 °F 40.1 °F 29.67 in WSW 2.0 mph 2.0 mph 52% 0.00 in 726 W/m2
12:46 57.4 °F 42.7 °F 29.66 in SW 2.0 mph 2.0 mph 58% 0.00 in 722 W/m2
12:52 58.6 °F 39.5 °F 29.66 in NW 2.0 mph 3.0 mph 49% 0.00 in 670 W/m2
12:58 57.4 °F 39.4 °F 29.66 in WSW 2.0 mph 3.0 mph 51% 0.00 in 121 W/m2
13:04 56.1 °F 40.6 °F 29.66 in WSW 1.0 mph 2.0 mph 56% 0.00 in 248 W/m2
13:10 55.8 °F 39.4 °F 29.66 in Calm     54% 0.00 in 195 W/m2
13:16 57.1 °F 39.6 °F 29.66 in SW 1.0 mph 2.0 mph 52% 0.00 in 677 W/m2
13:22 56.6 °F 40.1 °F 29.66 in WSW 1.0 mph 3.0 mph 54% 0.00 in 691 W/m2
13:28 56.9 °F 38.4 °F 29.66 in WSW 2.0 mph 3.0 mph 50% 0.00 in 153 W/m2
13:34 57.2 °F 39.2 °F 29.66 in WSW 2.0 mph 2.0 mph 51% 0.00 in 689 W/m2
13:40 57.8 °F 39.8 °F 29.66 in WSW 2.0 mph 3.0 mph 51% 0.00 in 679 W/m2
13:46 58.0 °F 39.5 °F 29.66 in WNW 1.0 mph 3.0 mph 50% 0.00 in 621 W/m2
13:52 57.4 °F 38.4 °F 29.66 in WSW 1.0 mph 6.0 mph 49% 0.00 in 253 W/m2
13:58 57.4 °F 39.4 °F 29.65 in SW 2.0 mph 6.0 mph 51% 0.00 in 584 W/m2
14:04 58.4 °F 40.8 °F 29.65 in NW 2.0 mph 5.0 mph 52% 0.00 in 603 W/m2
14:10 59.0 °F 41.9 °F 29.65 in WSW 2.0 mph 2.0 mph 53% 0.00 in 582 W/m2
14:16 58.8 °F 39.7 °F 29.65 in WNW 1.0 mph 2.0 mph 49% 0.00 in 557 W/m2
14:18 58.3 °F 39.2 °F 29.65 in SW 2.0 mph 2.0 mph 49% 0.00 in 568 W/m2
14:24 57.3 °F 38.8 °F 29.65 in WSW 2.0 mph 3.0 mph 50% 0.00 in 95 W/m2
14:30 56.3 °F 38.4 °F 29.65 in WSW 1.0 mph 1.0 mph 51% 0.00 in 151 W/m2
14:36 57.4 °F 41.8 °F 29.65 in West 1.0 mph 3.0 mph 56% 0.00 in 652 W/m2
14:42 59.3 °F 39.6 °F 29.65 in NW 1.0 mph 4.0 mph 48% 0.00 in 599 W/m2
14:48 59.1 °F 42.5 °F 29.65 in WSW 2.0 mph 4.0 mph 54% 0.00 in 568 W/m2
14:54 58.9 °F 40.3 °F 29.65 in WSW 1.0 mph 3.0 mph 50% 0.00 in 536 W/m2
15:00 59.6 °F 40.4 °F 29.65 in WSW 1.0 mph 1.0 mph 49% 0.00 in 543 W/m2
15:06 59.2 °F 40.0 °F 29.65 in West 1.0 mph 2.0 mph 49% 0.00 in 163 W/m2
15:12 57.5 °F 39.5 °F 29.66 in NW 1.0 mph 2.0 mph 51% 0.00 in 160 W/m2
15:18 56.6 °F 39.7 °F 29.66 in NW 1.0 mph 2.0 mph 53% 0.00 in 142 W/m2
15:24 56.4 °F 39.0 °F 29.66 in NW 1.0 mph 2.0 mph 52% 0.00 in 151 W/m2
15:30 56.5 °F 40.5 °F 29.66 in NW 1.0 mph 2.0 mph 55% 0.00 in 202 W/m2
15:36 57.7 °F 39.2 °F 29.66 in NW 1.0 mph 2.0 mph 50% 0.00 in 155 W/m2
15:42 57.2 °F 39.2 °F 29.66 in NW 1.0 mph 1.0 mph 51% 0.00 in 241 W/m2
15:48 59.3 °F 42.6 °F 29.66 in NW 1.0 mph 2.0 mph 54% 0.00 in 503 W/m2
15:54 59.0 °F 40.4 °F 29.66 in SSW 1.0 mph 4.0 mph 50% 0.00 in 172 W/m2
16:00 58.5 °F 40.4 °F 29.66 in WNW 2.0 mph 2.0 mph 51% 0.00 in 452 W/m2
16:06 58.8 °F 39.1 °F 29.66 in WSW 2.0 mph 3.0 mph 48% 0.00 in 185 W/m2
16:12 57.7 °F 38.7 °F 29.66 in West 1.0 mph 2.0 mph 49% 0.00 in 118 W/m2
16:18 57.0 °F 39.5 °F 29.67 in West 1.0 mph 2.0 mph 52% 0.00 in 84 W/m2
16:24 56.6 °F 40.1 °F 29.67 in Calm   1.0 mph 54% 0.00 in 90 W/m2
16:30 56.3 °F 40.3 °F 29.67 in West 1.0 mph 2.0 mph 55% 0.00 in 91 W/m2
16:36 56.3 °F 40.3 °F 29.67 in West 1.0 mph 2.0 mph 55% 0.00 in 160 W/m2
16:42 56.5 °F 39.6 °F 29.67 in West 1.0 mph 1.0 mph 53% 0.00 in 188 W/m2
16:48 56.6 °F 38.7 °F 29.68 in Calm   2.0 mph 51% 0.00 in 65 W/m2
16:54 56.3 °F 38.9 °F 29.69 in NW 1.0 mph 2.0 mph 52% 0.00 in 74 W/m2
17:00 56.1 °F 38.7 °F 29.68 in NW 1.0 mph 1.0 mph 52% 0.00 in 49 W/m2
17:06 55.9 °F 40.4 °F 29.68 in Calm   1.0 mph 56% 0.00 in 58 W/m2
17:12 55.5 °F 39.6 °F 29.68 in Calm   2.0 mph 55% 0.00 in 35 W/m2
17:18 54.9 °F 40.4 °F 29.68 in NW 1.0 mph 3.0 mph 58% 0.00 in 32 W/m2
17:24 54.3 °F 40.3 °F 29.68 in NW 2.0 mph 3.0 mph 59% 0.00 in 28 W/m2
17:30 53.9 °F 40.3 °F 29.68 in NW 1.0 mph 1.0 mph 60% 0.00 in 26 W/m2
17:36 53.6 °F 40.5 °F 29.69 in NW 1.0 mph 2.0 mph 61% 0.00 in 21 W/m2
17:42 53.2 °F 40.5 °F 29.69 in NW 1.0 mph 1.0 mph 62% 0.00 in 18 W/m2
17:48 52.8 °F 40.5 °F 29.69 in NW 1.0 mph 1.0 mph 63% 0.00 in 12 W/m2
17:54 52.4 °F 40.6 °F 29.69 in NW 1.0 mph 1.0 mph 64% 0.00 in 9 W/m2
18:00 52.0 °F 40.2 °F 29.69 in Calm     64% 0.00 in 5 W/m2
18:06 51.6 °F 40.2 °F 29.70 in Calm     65% 0.00 in 0 W/m2
18:12 51.2 °F 40.2 °F 29.71 in Calm     66% 0.00 in 0 W/m2
18:18 50.9 °F 39.9 °F 29.71 in Calm     66% 0.00 in 0 W/m2
18:26 50.4 °F 40.2 °F 29.72 in Calm     68% 0.00 in 0 W/m2
18:32 50.0 °F 39.8 °F 29.72 in Calm     68% 0.00 in 0 W/m2
18:38 49.6 °F 39.8 °F 29.72 in Calm     69% 0.00 in 0 W/m2
18:44 49.3 °F 40.3 °F 29.72 in Calm     71% 0.00 in 0 W/m2
18:50 49.1 °F 40.5 °F 29.72 in Calm     72% 0.00 in 0 W/m2
18:56 48.8 °F 40.2 °F 29.72 in Calm     72% 0.00 in 0 W/m2
19:02 48.5 °F 40.2 °F 29.72 in Calm     73% 0.00 in 0 W/m2
19:08 48.2 °F 40.3 °F 29.72 in Calm     74% 0.00 in 0 W/m2
19:14 47.7 °F 39.8 °F 29.72 in Calm     74% 0.00 in 0 W/m2
19:20 47.3 °F 39.8 °F 29.73 in Calm     75% 0.00 in 0 W/m2
19:26 46.8 °F 39.3 °F 29.73 in Calm     75% 0.00 in 0 W/m2
19:32 46.5 °F 39.3 °F 29.73 in Calm     76% 0.00 in 0 W/m2
19:38 46.1 °F 39.0 °F 29.74 in Calm     76% 0.00 in 0 W/m2
19:44 45.7 °F 39.2 °F 29.74 in Calm     78% 0.00 in 0 W/m2
19:50 45.4 °F 39.6 °F 29.74 in Calm     80% 0.00 in 0 W/m2
19:56 45.4 °F 39.9 °F 29.74 in Calm     81% 0.00 in 0 W/m2
20:02 45.2 °F 39.7 °F 29.74 in Calm     81% 0.00 in 0 W/m2
20:08 45.1 °F 39.9 °F 29.74 in Calm     82% 0.00 in 0 W/m2
20:14 44.9 °F 40.0 °F 29.74 in Calm     83% 0.00 in 0 W/m2
20:20 44.8 °F 40.0 °F 29.74 in Calm     83% 0.00 in 0 W/m2
20:26 44.5 °F 39.7 °F 29.74 in Calm     83% 0.00 in 0 W/m2
20:32 44.2 °F 39.7 °F 29.73 in Calm     84% 0.00 in 0 W/m2
20:38 44.0 °F 39.5 °F 29.72 in Calm     84% 0.00 in 0 W/m2
20:44 43.8 °F 39.3 °F 29.72 in Calm     84% 0.00 in 0 W/m2
20:50 43.6 °F 39.1 °F 29.72 in Calm     84% 0.00 in 0 W/m2
20:56 43.4 °F 39.2 °F 29.73 in Calm     85% 0.00 in 0 W/m2
21:02 43.3 °F 39.1 °F 29.73 in Calm     85% 0.00 in 0 W/m2
21:08 43.1 °F 38.9 °F 29.74 in Calm     85% 0.00 in 0 W/m2
21:14 43.3 °F 39.4 °F 29.74 in Calm     86% 0.00 in 0 W/m2
21:20 43.3 °F 39.4 °F 29.74 in Calm     86% 0.00 in 0 W/m2
21:26 43.3 °F 39.7 °F 29.74 in Calm     87% 0.00 in 0 W/m2
21:32 43.2 °F 39.6 °F 29.75 in Calm     87% 0.00 in 0 W/m2
21:38 43.2 °F 39.6 °F 29.75 in Calm     87% 0.00 in 0 W/m2
21:44 43.0 °F 39.4 °F 29.75 in Calm     87% 0.00 in 0 W/m2
21:50 42.7 °F 39.1 °F 29.75 in Calm     87% 0.00 in 0 W/m2
21:56 42.6 °F 39.0 °F 29.76 in Calm     87% 0.00 in 0 W/m2
22:02 42.6 °F 39.0 °F 29.76 in Calm     87% 0.00 in 0 W/m2
22:08 42.9 °F 39.6 °F 29.76 in Calm     88% 0.00 in 0 W/m2
22:14 43.0 °F 39.7 °F 29.77 in Calm     88% 0.00 in 0 W/m2
22:20 43.0 °F 39.7 °F 29.76 in Calm     88% 0.00 in 0 W/m2
22:26 43.0 °F 40.0 °F 29.76 in Calm     89% 0.00 in 0 W/m2
22:32 43.0 °F 40.0 °F 29.76 in Calm     89% 0.00 in 0 W/m2
22:38 43.0 °F 40.0 °F 29.76 in Calm     89% 0.00 in 0 W/m2
22:44 42.8 °F 39.8 °F 29.76 in Calm     89% 0.00 in 0 W/m2
22:50 42.7 °F 39.4 °F 29.76 in Calm     88% 0.00 in 0 W/m2
22:56 42.7 °F 39.7 °F 29.76 in Calm     89% 0.00 in 0 W/m2
23:02 42.3 °F 39.3 °F 29.75 in Calm     89% 0.00 in 0 W/m2
23:08 42.1 °F 39.1 °F 29.75 in Calm     89% 0.00 in 0 W/m2
23:14 41.9 °F 38.9 °F 29.76 in Calm     89% 0.00 in 0 W/m2
23:20 41.7 °F 38.7 °F 29.75 in Calm     89% 0.00 in 0 W/m2
23:26 41.5 °F 38.5 °F 29.75 in Calm     89% 0.00 in 0 W/m2
23:32 41.8 °F 39.1 °F 29.76 in Calm     90% 0.00 in 0 W/m2
23:38 42.0 °F 39.3 °F 29.76 in Calm     90% 0.00 in 0 W/m2
23:44 42.2 °F 39.5 °F 29.77 in Calm     90% 0.00 in 0 W/m2
23:50 42.4 °F 39.7 °F 29.76 in Calm     90% 0.00 in 0 W/m2
23:56 42.6 °F 39.9 °F 29.77 in Calm     90% 0.00 in 0 W/m2
Country Meadow, Clay, NY, USA
Compliments of Weather Underground - 2 mb